Time;durP1;ratioP1;P1;durP2;ratioP2;P2;SDS_P1;SDS_P2;PMS_P1;PMS_P2;Temp;Humidity;BMP_temperature;BMP_pressure;BME280_temperature;BME280_humidity;BME280_pressure;Samples;Min_cycle;Max_cycle;Signal;HPM_P1;HPM_P2
2023/04/09 00:00:35;;;;;;;29.38;13.32;;;9.50;99.90;;;;;;5065724;28;20032;-36
2023/04/09 00:03:01;;;;;;;33.00;14.10;;;9.60;99.90;;;;;;5064701;28;20362;-32
2023/04/09 00:05:27;;;;;;;31.63;14.52;;;9.50;99.90;;;;;;5067104;28;20485;-32
2023/04/09 00:07:52;;;;;;;34.20;13.00;;;9.60;99.90;;;;;;5071633;28;20024;-33
2023/04/09 00:10:18;;;;;;;32.17;14.38;;;9.60;99.90;;;;;;5052258;28;20116;-35
2023/04/09 00:12:44;;;;;;;27.52;14.55;;;9.70;99.90;;;;;;5084746;28;20116;-32
2023/04/09 00:15:10;;;;;;;29.80;13.00;;;9.70;99.90;;;;;;5055182;28;20544;-41
2023/04/09 00:17:35;;;;;;;31.58;14.45;;;9.70;99.90;;;;;;5055988;28;20035;-36
2023/04/09 00:20:02;;;;;;;29.17;13.48;;;9.70;99.90;;;;;;5059026;28;20497;-37
2023/04/09 00:22:28;;;;;;;27.55;12.75;;;9.70;99.90;;;;;;5052543;28;20537;-38
2023/04/09 00:24:54;;;;;;;27.02;12.90;;;9.70;99.90;;;;;;5052579;28;20108;-34
2023/04/09 00:27:20;;;;;;;31.98;13.90;;;9.70;99.90;;;;;;5052447;28;20124;-35
2023/04/09 00:29:46;;;;;;;29.52;13.85;;;9.70;99.90;;;;;;5055238;28;20036;-33
2023/04/09 00:32:12;;;;;;;29.50;15.10;;;9.70;99.90;;;;;;5056846;28;20036;-32
2023/04/09 00:34:38;;;;;;;31.23;14.55;;;9.70;99.90;;;;;;5054587;28;20036;-32
2023/04/09 00:37:04;;;;;;;31.67;14.00;;;9.70;99.90;;;;;;5060881;28;20021;-39
2023/04/09 00:39:30;;;;;;;30.60;14.20;;;9.80;99.90;;;;;;5057074;28;20025;-35
2023/04/09 00:42:01;;;;;;;29.08;13.07;;;9.90;99.90;;;;;;5063232;28;20036;-31
2023/04/09 00:44:27;;;;;;;32.53;13.52;;;9.90;99.90;;;;;;5064959;28;20028;-30
2023/04/09 00:46:54;;;;;;;33.75;14.15;;;9.80;99.90;;;;;;5067900;28;20389;-33
2023/04/09 00:49:20;;;;;;;33.90;14.40;;;9.80;99.90;;;;;;5066405;28;20036;-38
2023/04/09 00:51:47;;;;;;;32.97;14.65;;;9.90;99.90;;;;;;5051425;28;20075;-34
2023/04/09 00:54:13;;;;;;;34.28;14.80;;;9.90;99.90;;;;;;5061650;28;20549;-33
2023/04/09 00:56:40;;;;;;;33.85;15.93;;;10.00;99.90;;;;;;5075597;28;20056;-33
2023/04/09 00:59:06;;;;;;;38.45;14.85;;;10.00;99.90;;;;;;5075672;28;20484;-36
2023/04/09 01:01:31;;;;;;;30.38;13.57;;;10.10;99.90;;;;;;5075888;28;20086;-30
2023/04/09 01:03:57;;;;;;;36.38;16.23;;;10.10;99.90;;;;;;5075259;28;20024;-30
2023/04/09 01:06:31;;;;;;;32.78;15.30;;;10.10;99.90;;;;;;5067567;28;20512;-32
2023/04/09 01:09:03;;;;;;;37.38;15.38;;;10.10;99.90;;;;;;5074578;28;20037;-31
2023/04/09 01:11:40;;;;;;;33.22;14.68;;;10.10;99.90;;;;;;5069796;28;20385;-29
2023/04/09 01:14:25;;;;;;;;;;;10.20;99.90;;;;;;5065404;28;20074;-31
2023/04/09 01:17:00;;;;;;;35.45;14.32;;;10.20;99.90;;;;;;5075583;28;19924;-35
2023/04/09 01:19:40;;;;;;;31.83;14.25;;;10.20;99.90;;;;;;5075555;28;20393;-31
2023/04/09 01:22:27;;;;;;;31.48;14.57;;;10.20;99.90;;;;;;5075646;28;20080;-33
2023/04/09 01:24:53;;;;;;;;;;;10.20;99.90;;;;;;5074750;28;20393;-36
2023/04/09 01:27:19;;;;;;;27.48;12.80;;;10.10;99.90;;;;;;5062046;28;19909;-32
2023/04/09 01:29:48;;;;;;;35.72;14.68;;;10.20;99.90;;;;;;5061936;28;20432;-33
2023/04/09 01:32:16;;;;;;;36.05;14.88;;;10.20;99.90;;;;;;5058066;28;20029;-37
2023/04/09 01:34:46;;;;;;;32.97;14.40;;;10.20;99.90;;;;;;5055622;28;20466;-33
2023/04/09 01:37:12;;;;;;;36.47;16.60;;;10.20;99.90;;;;;;5055154;28;20095;-32
2023/04/09 01:39:38;;;;;;;31.52;13.52;;;10.10;99.90;;;;;;5068084;28;20032;-37
2023/04/09 01:42:08;;;;;;;38.85;15.38;;;10.20;99.90;;;;;;5063133;28;20029;-30
2023/04/09 01:44:37;;;;;;;36.95;15.15;;;10.20;99.90;;;;;;5061796;28;20108;-31
2023/04/09 01:47:02;;;;;;;37.20;14.15;;;10.30;99.90;;;;;;5060980;28;20095;-33
2023/04/09 01:49:29;;;;;;;35.47;15.80;;;10.30;99.90;;;;;;5059410;28;20032;-34
2023/04/09 01:51:54;;;;;;;38.47;14.82;;;10.30;99.90;;;;;;5055127;28;20104;-33
2023/04/09 01:54:20;;;;;;;34.28;15.00;;;10.30;99.90;;;;;;5065640;28;20071;-34
2023/04/09 01:56:47;;;;;;;33.10;14.98;;;10.20;99.90;;;;;;5069636;28;20055;-31
2023/04/09 01:59:13;;;;;;;34.58;14.15;;;10.30;99.90;;;;;;5062418;28;20032;-31
2023/04/09 02:02:00;;;;;;;30.90;13.40;;;10.30;99.90;;;;;;5072777;28;20025;-40
2023/04/09 02:04:40;;;;;;;29.77;14.43;;;10.20;99.90;;;;;;5054617;28;20056;-35
2023/04/09 02:07:16;;;;;;;41.95;14.93;;;10.30;99.90;;;;;;5065107;28;20037;-35
2023/04/09 02:09:47;;;;;;;29.10;13.18;;;10.20;99.90;;;;;;5069867;28;20036;-31
2023/04/09 02:12:16;;;;;;;36.45;15.15;;;10.30;99.90;;;;;;5064347;28;20473;-30
2023/04/09 02:14:45;;;;;;;32.33;14.88;;;10.30;99.90;;;;;;5073346;28;20477;-31
2023/04/09 02:17:12;;;;;;;33.42;15.25;;;10.30;99.90;;;;;;5073388;28;20485;-35
2023/04/09 02:19:42;;;;;;;35.88;15.45;;;10.30;99.90;;;;;;5074536;28;20027;-29
2023/04/09 02:22:08;;;;;;;37.20;14.88;;;10.30;99.90;;;;;;5068111;28;20024;-35
2023/04/09 02:24:35;;;;;;;29.95;13.60;;;10.30;99.90;;;;;;5074447;28;20262;-34
2023/04/09 02:27:01;;;;;;;31.08;14.73;;;10.30;99.90;;;;;;5073018;28;20028;-31
2023/04/09 02:29:26;;;;;;;32.85;15.02;;;10.30;99.90;;;;;;5071836;28;20082;-43
2023/04/09 02:31:52;;;;;;;33.97;14.55;;;10.30;99.90;;;;;;5066925;28;20456;-34
2023/04/09 02:34:19;;;;;;;39.20;16.23;;;10.40;99.90;;;;;;5052959;28;20024;-36
2023/04/09 02:36:44;;;;;;;31.58;14.35;;;10.30;99.90;;;;;;5054012;28;20025;-31
2023/04/09 02:39:10;;;;;;;29.98;14.80;;;10.30;99.90;;;;;;5059761;28;20435;-31
2023/04/09 02:41:36;;;;;;;32.78;15.77;;;10.30;99.90;;;;;;5073230;28;20477;-33
2023/04/09 02:44:01;;;;;;;29.48;14.27;;;10.30;99.90;;;;;;5074016;28;20069;-31
2023/04/09 02:46:27;;;;;;;31.70;14.70;;;10.40;99.90;;;;;;5071583;28;20029;-33
2023/04/09 02:48:52;;;;;;;30.35;13.77;;;10.40;99.90;;;;;;5073897;28;20035;-33
2023/04/09 02:51:19;;;;;;;29.05;12.80;;;10.40;99.90;;;;;;5071934;28;20021;-31
2023/04/09 02:53:45;;;;;;;31.67;14.45;;;10.50;99.90;;;;;;5053861;28;20028;-30
2023/04/09 02:56:10;;;;;;;30.65;14.48;;;10.50;99.90;;;;;;5057323;28;20053;-33
2023/04/09 02:58:36;;;;;;;35.28;15.18;;;10.40;99.90;;;;;;5073527;28;20393;-32
2023/04/09 03:01:01;;;;;;;29.55;13.40;;;10.40;99.90;;;;;;5072511;28;20025;-33
2023/04/09 03:03:27;;;;;;;32.33;13.15;;;10.50;99.90;;;;;;5071719;28;20036;-31
2023/04/09 03:05:53;;;;;;;33.85;15.60;;;10.50;99.90;;;;;;5073492;28;20031;-31
2023/04/09 03:08:19;;;;;;;36.80;14.50;;;10.50;99.90;;;;;;5053362;28;20107;-49
2023/04/09 03:10:44;;;;;;;36.58;16.00;;;10.50;99.90;;;;;;5053545;28;20033;-32
2023/04/09 03:13:10;;;;;;;31.73;14.77;;;10.50;99.90;;;;;;5064579;28;20052;-30
2023/04/09 03:15:35;;;;;;;36.72;15.60;;;10.40;99.90;;;;;;5072251;28;20424;-34
2023/04/09 03:18:01;;;;;;;29.92;14.38;;;10.40;99.90;;;;;;5071411;28;20021;-34
2023/04/09 03:20:27;;;;;;;28.10;13.40;;;10.40;99.90;;;;;;5073363;28;20543;-33
2023/04/09 03:22:52;;;;;;;36.78;14.18;;;10.30;99.90;;;;;;5058951;28;20464;-34
2023/04/09 03:25:19;;;;;;;28.40;14.27;;;10.30;99.90;;;;;;5053305;28;20017;-34
2023/04/09 03:27:45;;;;;;;34.60;14.63;;;10.20;99.90;;;;;;5066426;28;20028;-32
2023/04/09 03:30:11;;;;;;;28.02;13.88;;;10.30;99.90;;;;;;5071818;28;20392;-31
2023/04/09 03:32:36;;;;;;;31.10;14.25;;;10.30;99.90;;;;;;5071987;28;20048;-35
2023/04/09 03:35:02;;;;;;;30.60;13.80;;;10.30;99.90;;;;;;5073104;28;20021;-33
2023/04/09 03:37:28;;;;;;;32.30;14.00;;;10.30;99.90;;;;;;5060403;28;20032;-30
2023/04/09 03:39:53;;;;;;;28.15;12.98;;;10.40;99.90;;;;;;5053050;28;20024;-35
2023/04/09 03:42:19;;;;;;;30.58;13.90;;;10.40;99.90;;;;;;5064164;28;20055;-33
2023/04/09 03:44:45;;;;;;;32.83;14.65;;;10.40;99.90;;;;;;5068861;28;20158;-35
2023/04/09 03:47:11;;;;;;;33.13;15.27;;;10.40;99.90;;;;;;5057048;28;20016;-30
2023/04/09 03:49:36;;;;;;;32.70;14.65;;;10.40;99.90;;;;;;5071674;28;20046;-34
2023/04/09 03:52:02;;;;;;;35.63;14.98;;;10.40;99.90;;;;;;5072041;28;20466;-31
2023/04/09 03:54:29;;;;;;;29.63;13.30;;;10.40;99.90;;;;;;5068855;28;20055;-35
2023/04/09 03:56:55;;;;;;;29.13;14.10;;;10.40;99.90;;;;;;5071424;28;20032;-40
2023/04/09 03:59:21;;;;;;;27.63;14.68;;;10.40;99.90;;;;;;5070973;28;20025;-33
2023/04/09 04:01:47;;;;;;;36.55;14.00;;;10.30;99.90;;;;;;5067065;28;20021;-32
2023/04/09 04:04:13;;;;;;;30.67;14.93;;;10.40;99.90;;;;;;5069792;28;20366;-36
2023/04/09 04:06:38;;;;;;;34.17;14.05;;;10.40;99.90;;;;;;5068895;28;20539;-34
2023/04/09 04:09:04;;;;;;;32.58;14.50;;;10.40;99.90;;;;;;5069814;28;20020;-33
2023/04/09 04:11:30;;;;;;;36.63;16.00;;;10.40;99.90;;;;;;5066876;28;20043;-31
2023/04/09 04:13:56;;;;;;;33.78;14.07;;;10.40;99.90;;;;;;5070923;28;20063;-43
2023/04/09 04:16:22;;;;;;;28.98;12.93;;;10.40;99.90;;;;;;5068650;28;20078;-32
2023/04/09 04:18:47;;;;;;;28.98;13.88;;;10.50;99.90;;;;;;5068224;28;20052;-40
2023/04/09 04:21:14;;;;;;;30.98;13.60;;;10.50;99.90;;;;;;5068298;28;20108;-32
2023/04/09 04:23:40;;;;;;;29.88;14.13;;;10.60;99.90;;;;;;5066179;28;20082;-31
2023/04/09 04:26:09;;;;;;;32.97;13.93;;;10.60;99.90;;;;;;5072586;28;20111;-43
2023/04/09 04:28:39;;;;;;;31.40;14.02;;;10.50;99.90;;;;;;5071586;28;20028;-31
2023/04/09 04:31:09;;;;;;;31.88;15.65;;;10.50;99.90;;;;;;5069514;28;20119;-36
2023/04/09 04:33:35;;;;;;;28.55;13.55;;;10.40;99.90;;;;;;5073110;28;20043;-44
2023/04/09 04:36:06;;;;;;;31.92;14.18;;;10.40;99.90;;;;;;5076448;28;20411;-36
2023/04/09 04:38:32;;;;;;;34.25;15.05;;;10.40;99.90;;;;;;5065022;28;20469;-35
2023/04/09 04:40:57;;;;;;;36.42;14.43;;;10.50;99.90;;;;;;5062416;28;20070;-31
2023/04/09 04:43:23;;;;;;;32.42;15.30;;;10.40;99.90;;;;;;5069973;28;20350;-32
2023/04/09 04:45:48;;;;;;;30.08;14.40;;;10.40;99.90;;;;;;5071281;28;20044;-43
2023/04/09 04:48:14;;;;;;;33.08;15.25;;;10.40;99.90;;;;;;5071102;28;20044;-34
2023/04/09 04:50:40;;;;;;;32.30;15.45;;;10.40;99.90;;;;;;5076234;28;20400;-31
2023/04/09 04:53:06;;;;;;;33.92;14.57;;;10.50;99.90;;;;;;5073120;28;20447;-34
2023/04/09 04:55:34;;;;;;;35.40;14.95;;;10.50;99.90;;;;;;5075717;28;20041;-34
2023/04/09 04:57:59;;;;;;;32.10;14.63;;;10.40;99.90;;;;;;5074338;28;20029;-35
2023/04/09 05:00:25;;;;;;;32.50;14.95;;;10.40;99.90;;;;;;5074673;28;20047;-36
2023/04/09 05:02:51;;;;;;;34.65;15.80;;;10.40;99.90;;;;;;5072732;28;20025;-30
2023/04/09 05:05:16;;;;;;;34.88;15.23;;;10.40;99.90;;;;;;5075935;28;20025;-32
2023/04/09 05:07:42;;;;;;;32.15;15.25;;;10.30;99.90;;;;;;5073199;28;20480;-36
2023/04/09 05:10:08;;;;;;;35.08;14.88;;;10.40;99.90;;;;;;5075883;28;20020;-37
2023/04/09 05:12:34;;;;;;;33.05;15.02;;;10.40;99.90;;;;;;5073634;28;20498;-33
2023/04/09 05:14:59;;;;;;;30.20;13.60;;;10.50;99.90;;;;;;5073091;28;20056;-34
2023/04/09 05:17:25;;;;;;;29.65;13.93;;;10.50;99.90;;;;;;5073032;28;20480;-65
2023/04/09 05:19:53;;;;;;;30.92;14.00;;;10.40;99.90;;;;;;5074378;28;20494;-32
2023/04/09 05:22:19;;;;;;;32.22;12.88;;;10.50;99.90;;;;;;5075854;28;20028;-33
2023/04/09 05:24:45;;;;;;;33.65;14.32;;;10.40;99.90;;;;;;5073441;28;20043;-44
2023/04/09 05:27:11;;;;;;;32.80;14.57;;;10.40;99.90;;;;;;5076111;28;20100;-34
2023/04/09 05:29:36;;;;;;;32.35;14.55;;;10.40;99.90;;;;;;5071401;28;20028;-33
2023/04/09 05:32:02;;;;;;;32.63;14.52;;;10.30;99.90;;;;;;5074258;28;20033;-31
2023/04/09 05:34:28;;;;;;;30.23;13.55;;;10.30;99.90;;;;;;5074493;28;20497;-36
2023/04/09 05:36:54;;;;;;;31.90;14.27;;;10.20;99.90;;;;;;5075329;28;20028;-35
2023/04/09 05:39:20;;;;;;;35.80;14.80;;;10.30;99.90;;;;;;5073532;28;20111;-33
2023/04/09 05:41:46;;;;;;;28.10;13.80;;;10.40;99.90;;;;;;5074905;28;20500;-35
2023/04/09 05:44:12;;;;;;;31.60;14.55;;;10.40;99.90;;;;;;5075396;28;20017;-32
2023/04/09 05:46:37;;;;;;;37.55;15.82;;;10.40;99.90;;;;;;5073967;28;20033;-37
2023/04/09 05:49:03;;;;;;;30.25;14.00;;;10.40;99.90;;;;;;5063951;28;20103;-34
2023/04/09 05:51:29;;;;;;;33.20;13.82;;;10.50;99.90;;;;;;5055002;28;20029;-32
2023/04/09 05:53:55;;;;;;;28.35;13.50;;;10.50;99.90;;;;;;5059343;28;20091;-30
2023/04/09 05:56:23;;;;;;;32.80;13.52;;;10.50;99.90;;;;;;5067275;28;20393;-31
2023/04/09 05:58:50;;;;;;;34.17;15.27;;;10.50;99.90;;;;;;5060954;28;20072;-34
2023/04/09 06:01:15;;;;;;;29.38;13.48;;;10.50;99.90;;;;;;5057628;28;20023;-39
2023/04/09 06:03:41;;;;;;;32.05;14.52;;;10.50;99.90;;;;;;5074620;28;20032;-31
2023/04/09 06:06:07;;;;;;;37.05;14.55;;;10.60;99.90;;;;;;5074756;28;20052;-35
2023/04/09 06:08:33;;;;;;;37.55;16.40;;;10.60;99.90;;;;;;5072198;28;20052;-34
2023/04/09 06:10:58;;;;;;;39.72;16.35;;;10.70;99.90;;;;;;5072337;28;21380;-37
2023/04/09 06:13:25;;;;;;;40.92;17.02;;;10.60;99.90;;;;;;5072833;28;20029;-33
2023/04/09 06:15:51;;;;;;;51.75;19.80;;;10.60;99.90;;;;;;5070413;28;20111;-30
2023/04/09 06:18:16;;;;;;;47.88;21.13;;;10.70;99.90;;;;;;5072784;28;20031;-37
2023/04/09 06:20:42;;;;;;;49.78;20.92;;;10.70;99.90;;;;;;5066618;28;20021;-31
2023/04/09 06:23:08;;;;;;;59.63;23.67;;;10.70;99.90;;;;;;5074515;28;20032;-36
2023/04/09 06:25:35;;;;;;;52.70;21.05;;;10.60;99.90;;;;;;5066644;28;20040;-34
2023/04/09 06:28:01;;;;;;;51.22;18.63;;;10.60;99.90;;;;;;5072244;28;20111;-36
2023/04/09 06:30:28;;;;;;;54.25;21.48;;;10.60;99.90;;;;;;5063305;28;20469;-31
2023/04/09 06:32:53;;;;;;;50.53;21.60;;;10.60;99.90;;;;;;5071983;28;20461;-33
2023/04/09 06:35:19;;;;;;;47.55;21.02;;;10.50;99.90;;;;;;5073511;28;20025;-30
2023/04/09 06:37:45;;;;;;;56.70;21.77;;;10.40;99.90;;;;;;5072071;28;20502;-34
2023/04/09 06:40:11;;;;;;;55.33;22.17;;;10.30;99.90;;;;;;5070203;28;20059;-31
2023/04/09 06:42:36;;;;;;;59.63;23.35;;;10.30;99.90;;;;;;5073716;28;20035;-32
2023/04/09 06:45:07;;;;;;;50.67;22.48;;;10.20;99.90;;;;;;5074268;28;20016;-33
2023/04/09 06:47:34;;;;;;;50.42;21.55;;;10.20;99.90;;;;;;5072163;28;20040;-36
2023/04/09 06:49:59;;;;;;;61.28;23.33;;;10.30;99.90;;;;;;5073882;28;20036;-32
2023/04/09 06:52:25;;;;;;;45.58;20.13;;;10.40;99.90;;;;;;5074178;28;20384;-36
2023/04/09 06:54:51;;;;;;;50.30;21.33;;;10.50;99.90;;;;;;5065208;28;20037;-40
2023/04/09 06:57:16;;;;;;;50.55;20.85;;;10.50;99.90;;;;;;5062033;28;20075;-32
2023/04/09 06:59:42;;;;;;;48.13;20.38;;;10.50;99.90;;;;;;5057834;28;20017;-32
2023/04/09 07:02:08;;;;;;;51.97;21.92;;;10.60;99.90;;;;;;5065673;28;20077;-35
2023/04/09 07:04:34;;;;;;;58.03;21.63;;;10.50;99.90;;;;;;5061275;28;20454;-30
2023/04/09 07:07:00;;;;;;;51.70;23.20;;;10.50;99.90;;;;;;5058464;28;20508;-34
2023/04/09 07:09:25;;;;;;;53.58;22.67;;;10.50;99.90;;;;;;5055836;28;20021;-37
2023/04/09 07:11:51;;;;;;;50.72;21.45;;;10.40;99.90;;;;;;5062329;28;20113;-38
2023/04/09 07:14:16;;;;;;;54.35;22.40;;;10.40;99.90;;;;;;5066329;28;20396;-36
2023/04/09 07:16:45;;;;;;;51.63;20.80;;;10.50;99.90;;;;;;5070642;28;20039;-34
2023/04/09 07:19:11;;;;;;;51.40;22.13;;;10.50;99.90;;;;;;5073642;28;20044;-34
2023/04/09 07:21:36;;;;;;;43.95;20.50;;;10.50;99.90;;;;;;5057514;28;20048;-36
2023/04/09 07:24:02;;;;;;;51.58;20.45;;;10.60;99.90;;;;;;5053956;28;20025;-33
2023/04/09 07:26:29;;;;;;;44.45;20.35;;;10.60;99.90;;;;;;5052739;28;20040;-33
2023/04/09 07:28:55;;;;;;;46.17;21.05;;;10.60;99.90;;;;;;5072467;28;20028;-31
2023/04/09 07:31:21;;;;;;;45.75;19.73;;;10.60;99.90;;;;;;5070333;28;20051;-35
2023/04/09 07:33:47;;;;;;;47.78;19.70;;;10.70;99.90;;;;;;5066299;28;20029;-35
2023/04/09 07:36:12;;;;;;;43.88;18.33;;;10.80;99.90;;;;;;5052785;28;20026;-29
2023/04/09 07:38:38;;;;;;;38.65;17.27;;;10.90;99.90;;;;;;5071035;28;20080;-33
2023/04/09 07:41:04;;;;;;;49.65;19.73;;;10.90;99.90;;;;;;5058563;28;20017;-34
2023/04/09 07:43:31;;;;;;;49.15;21.48;;;10.80;99.90;;;;;;5052995;28;20021;-30
2023/04/09 07:45:56;;;;;;;41.10;19.60;;;10.70;99.90;;;;;;5066763;28;20036;-35
2023/04/09 07:48:22;;;;;;;46.50;19.63;;;10.70;99.90;;;;;;5052813;28;20025;-39
2023/04/09 07:50:47;;;;;;;47.53;19.67;;;10.70;99.90;;;;;;5071092;28;20093;-33
2023/04/09 07:53:13;;;;;;;46.40;20.35;;;10.80;99.90;;;;;;5061836;28;20079;-32
2023/04/09 07:55:39;;;;;;;42.33;19.08;;;10.90;99.90;;;;;;5057468;28;20274;-35
2023/04/09 07:58:06;;;;;;;41.88;18.75;;;11.10;99.90;;;;;;5052749;28;20013;-34
2023/04/09 08:00:31;;;;;;;34.78;15.70;;;11.20;99.90;;;;;;5067234;28;20035;-30
2023/04/09 08:02:57;;;;;;;35.08;16.27;;;11.30;99.90;;;;;;5070468;28;20024;-32
2023/04/09 08:05:23;;;;;;;34.17;16.33;;;11.20;99.90;;;;;;5068284;28;20028;-34
2023/04/09 08:07:50;;;;;;;30.63;14.60;;;11.30;99.90;;;;;;5069290;28;20408;-41
2023/04/09 08:10:15;;;;;;;35.08;15.32;;;11.30;99.90;;;;;;5066754;28;20469;-36
2023/04/09 08:12:41;;;;;;;34.50;15.98;;;11.40;99.90;;;;;;5069013;28;20025;-34
2023/04/09 08:15:08;;;;;;;32.03;15.55;;;11.40;99.90;;;;;;5067543;28;20025;-33
2023/04/09 08:17:35;;;;;;;33.88;15.43;;;11.60;99.90;;;;;;5070945;28;20464;-32
2023/04/09 08:20:02;;;;;;;30.40;14.65;;;11.60;99.90;;;;;;5071584;28;20468;-35
2023/04/09 08:22:27;;;;;;;35.90;15.07;;;11.70;99.90;;;;;;5070781;28;20065;-33
2023/04/09 08:24:55;;;;;;;30.75;14.07;;;11.70;99.90;;;;;;5052559;28;20033;-37
2023/04/09 08:27:20;;;;;;;36.33;16.23;;;11.80;99.90;;;;;;5052532;28;20021;-33
2023/04/09 08:29:46;;;;;;;33.75;15.20;;;11.90;99.90;;;;;;5067309;28;20476;-38
2023/04/09 08:32:12;;;;;;;37.35;15.68;;;12.00;99.90;;;;;;5058803;28;20036;-31
2023/04/09 08:34:38;;;;;;;32.40;14.85;;;12.10;99.90;;;;;;5052735;28;20496;-34
2023/04/09 08:37:04;;;;;;;32.50;15.38;;;12.10;99.90;;;;;;5065770;28;20020;-38
2023/04/09 08:39:30;;;;;;;33.17;15.68;;;12.20;99.90;;;;;;5066894;28;20033;-35
2023/04/09 08:42:01;;;;;;;41.35;17.17;;;12.30;99.90;;;;;;5072397;28;20028;-32
2023/04/09 08:44:27;;;;;;;40.72;17.23;;;12.40;99.90;;;;;;5069990;28;20113;-38
2023/04/09 08:46:53;;;;;;;35.47;16.35;;;12.40;99.90;;;;;;5070797;28;20028;-32
2023/04/09 08:49:20;;;;;;;33.50;15.85;;;12.50;99.90;;;;;;5071020;28;20397;-36
2023/04/09 08:51:49;;;;;;;34.80;16.45;;;12.80;99.90;;;;;;5060791;28;20024;-30
2023/04/09 08:54:18;;;;;;;33.63;15.85;;;12.80;99.90;;;;;;5059037;28;20020;-35
2023/04/09 08:56:47;;;;;;;27.92;13.85;;;13.00;99.90;;;;;;5070719;28;20128;-34
2023/04/09 08:59:19;;;;;;;28.45;14.32;;;13.20;99.90;;;;;;5069305;28;20024;-34
2023/04/09 09:01:48;;;;;;;28.17;14.45;;;13.40;99.90;;;;;;5071017;28;20033;-33
2023/04/09 09:04:14;;;;;;;32.58;15.02;;;13.60;99.90;;;;;;5067952;28;20032;-33
2023/04/09 09:06:40;;;;;;;27.52;13.85;;;13.60;99.90;;;;;;5070952;28;20073;-37
2023/04/09 09:09:10;;;;;;;28.58;14.93;;;13.70;99.90;;;;;;5072204;28;20021;-34
2023/04/09 09:11:41;;;;;;;29.70;14.15;;;13.80;99.90;;;;;;5070621;28;20465;-36
2023/04/09 09:14:10;;;;;;;31.50;14.60;;;13.80;99.90;;;;;;5070467;28;20028;-35
2023/04/09 09:16:43;;;;;;;28.70;14.60;;;13.90;99.90;;;;;;5073156;28;20024;-31
2023/04/09 09:19:29;;;;;;;28.50;14.52;;;13.90;99.90;;;;;;5074252;28;20025;-35
2023/04/09 09:22:00;;;;;;;28.98;14.07;;;14.00;99.90;;;;;;5064278;28;20033;-37
2023/04/09 09:24:26;;;;;;;30.33;13.73;;;14.30;99.90;;;;;;5058023;28;20071;-31
2023/04/09 09:26:58;;;;;;;31.85;15.20;;;14.70;99.90;;;;;;5070764;28;20052;-31
2023/04/09 09:29:24;;;;;;;27.15;13.45;;;15.00;99.90;;;;;;5070202;28;20039;-34
2023/04/09 09:31:52;;;;;;;28.45;13.25;;;15.20;99.90;;;;;;5059307;28;20036;-35
2023/04/09 09:34:21;;;;;;;24.20;12.25;;;15.10;99.90;;;;;;5075411;28;20032;-32
2023/04/09 09:36:47;;;;;;;29.15;13.80;;;15.20;99.90;;;;;;5068512;28;20120;-31
2023/04/09 09:39:16;;;;;;;30.17;13.55;;;15.30;99.90;;;;;;5075268;28;20431;-31
2023/04/09 09:41:43;;;;;;;24.65;13.07;;;15.40;99.90;;;;;;5073858;28;20419;-31
2023/04/09 09:44:10;;;;;;;24.48;12.98;;;15.70;99.90;;;;;;5075233;28;20013;-34
2023/04/09 09:46:41;;;;;;;25.92;12.50;;;15.80;99.90;;;;;;5070618;28;20488;-32
2023/04/09 09:49:08;;;;;;;27.95;13.95;;;15.70;99.90;;;;;;5055489;28;20021;-30
2023/04/09 09:51:39;;;;;;;27.35;13.68;;;15.70;99.90;;;;;;5053581;28;20457;-34
2023/04/09 09:54:07;;;;;;;27.55;14.10;;;15.70;99.90;;;;;;5065998;28;20024;-41
2023/04/09 09:56:38;;;;;;;24.50;13.77;;;15.70;99.90;;;;;;5067925;28;20512;-37
2023/04/09 09:59:22;;;;;;;27.70;13.18;;;15.80;99.90;;;;;;5064850;28;20020;-31
2023/04/09 10:01:57;;;;;;;26.40;12.82;;;15.70;99.90;;;;;;5073672;28;20473;-34
2023/04/09 10:04:25;;;;;;;28.90;14.73;;;15.70;99.90;;;;;;5055310;28;20021;-36
2023/04/09 10:06:51;;;;;;;30.23;15.00;;;15.80;99.90;;;;;;5054628;28;20033;-45
2023/04/09 10:09:18;;;;;;;27.83;15.07;;;15.70;99.90;;;;;;5054794;28;20538;-34
2023/04/09 10:11:46;;;;;;;27.70;15.43;;;15.60;99.90;;;;;;5054489;28;20219;-35
2023/04/09 10:14:13;;;;;;;30.30;15.73;;;15.60;99.90;;;;;;5065262;28;20469;-32
2023/04/09 10:16:40;;;;;;;29.60;14.70;;;15.70;99.90;;;;;;5072109;28;20032;-34
2023/04/09 10:19:11;;;;;;;30.13;15.23;;;15.70;99.90;;;;;;5074850;28;20020;-31
2023/04/09 10:21:37;;;;;;;29.67;14.88;;;15.60;99.90;;;;;;5073706;28;20027;-32
2023/04/09 10:24:06;;;;;;;27.85;14.60;;;15.30;99.90;;;;;;5073933;28;20033;-31
2023/04/09 10:26:33;;;;;;;34.22;16.85;;;15.20;99.90;;;;;;5074140;28;20432;-35
2023/04/09 10:29:07;;;;;;;27.35;14.60;;;15.60;99.90;;;;;;5074338;28;20032;-34
2023/04/09 10:31:51;;;;;;;33.20;15.80;;;16.00;99.90;;;;;;5072105;28;20542;-31
2023/04/09 10:34:20;;;;;;;27.77;15.00;;;16.10;99.90;;;;;;5074206;28;20029;-35
2023/04/09 10:36:52;;;;;;;24.88;14.80;;;16.10;99.90;;;;;;5074146;28;20031;-33
2023/04/09 10:39:18;;;;;;;28.77;16.45;;;16.30;99.90;;;;;;5070352;28;20020;-34
2023/04/09 10:41:45;;;;;;;33.85;16.90;;;16.40;99.90;;;;;;5072879;28;20028;-33
2023/04/09 10:44:25;;;;;;;26.17;14.38;;;16.70;99.90;;;;;;5070396;28;20442;-39
2023/04/09 10:46:55;;;;;;;30.13;15.88;;;16.90;99.90;;;;;;5060267;28;20029;-39
2023/04/09 10:49:25;;;;;;;34.08;15.93;;;16.90;99.90;;;;;;5071908;28;20184;-40
2023/04/09 10:52:01;;;;;;;35.25;17.08;;;17.00;99.90;;;;;;5074100;28;20533;-40
2023/04/09 10:54:32;;;;;;;24.95;14.02;;;16.90;99.90;;;;;;5072260;28;20021;-39
2023/04/09 10:57:18;;;;;;;24.70;14.10;;;17.00;99.90;;;;;;5073724;28;20541;-30
2023/04/09 10:59:46;;;;;;;33.60;15.65;;;16.60;99.90;;;;;;5073676;28;20027;-32
2023/04/09 11:02:39;;;;;;;31.00;15.82;;;16.40;99.90;;;;;;5070469;28;20024;-33
2023/04/09 11:05:11;;;;;;;29.25;15.38;;;16.10;99.90;;;;;;5073023;28;20536;-34
2023/04/09 11:07:42;;;;;;;30.95;16.33;;;16.10;99.90;;;;;;5073851;28;20416;-31
2023/04/09 11:10:08;;;;;;;27.95;15.05;;;16.10;99.90;;;;;;5066854;28;20028;-34
2023/04/09 11:12:34;;;;;;;36.33;18.05;;;16.00;99.90;;;;;;5073400;28;20032;-38
2023/04/09 11:14:59;;;;;;;28.60;14.60;;;15.70;99.90;;;;;;5073411;28;20366;-32
2023/04/09 11:17:26;;;;;;;31.10;16.02;;;15.50;99.90;;;;;;5060432;28;20112;-33
2023/04/09 11:19:51;;;;;;;32.58;15.68;;;15.40;99.90;;;;;;5065976;28;20486;-36
2023/04/09 11:22:17;;;;;;;27.95;15.48;;;15.30;99.90;;;;;;5070898;28;20021;-36
2023/04/09 11:24:45;;;;;;;25.88;14.43;;;15.60;99.90;;;;;;5067764;28;20381;-38
2023/04/09 11:27:11;;;;;;;28.98;15.68;;;15.90;99.90;;;;;;5060492;28;20035;-36
2023/04/09 11:29:37;;;;;;;35.58;16.45;;;16.10;99.90;;;;;;5061885;28;20032;-31
2023/04/09 11:32:06;;;;;;;28.38;15.00;;;16.20;99.90;;;;;;5061720;28;20025;-34
2023/04/09 11:34:31;;;;;;;30.50;15.60;;;16.10;99.90;;;;;;5063835;28;20032;-38
2023/04/09 11:36:58;;;;;;;24.85;14.07;;;15.90;99.90;;;;;;5064176;28;20037;-33
2023/04/09 11:39:25;;;;;;;29.00;15.40;;;15.90;99.90;;;;;;5065097;28;20098;-35
2023/04/09 11:41:51;;;;;;;28.00;13.57;;;15.60;99.90;;;;;;5059587;28;20389;-31
2023/04/09 11:44:16;;;;;;;31.30;15.00;;;15.60;99.90;;;;;;5059286;28;20013;-35
2023/04/09 11:46:42;;;;;;;26.10;14.43;;;15.80;99.90;;;;;;5066679;28;20101;-36
2023/04/09 11:49:08;;;;;;;24.45;13.80;;;16.00;99.90;;;;;;5071970;28;20025;-36
2023/04/09 11:51:35;;;;;;;23.80;13.45;;;15.80;99.90;;;;;;5073257;28;20029;-34
2023/04/09 11:54:02;;;;;;;25.60;13.35;;;15.50;99.90;;;;;;5071248;28;20063;-35
2023/04/09 11:56:30;;;;;;;23.92;13.45;;;15.40;99.90;;;;;;5059202;28;20068;-36
2023/04/09 11:58:56;;;;;;;30.52;14.77;;;15.30;99.90;;;;;;5059101;28;20514;-35
2023/04/09 12:01:22;;;;;;;23.23;12.93;;;15.20;99.90;;;;;;5052018;28;20036;-36
2023/04/09 12:03:54;;;;;;;24.75;13.18;;;15.20;99.90;;;;;;5070550;28;20028;-33
2023/04/09 12:06:21;;;;;;;22.83;11.82;;;15.30;99.90;;;;;;5068195;28;20361;-39
2023/04/09 12:08:55;;;;;;;21.33;12.63;;;15.40;99.90;;;;;;5062933;28;20025;-33
2023/04/09 12:11:28;;;;;;;22.23;12.73;;;15.60;99.90;;;;;;5066908;28;20290;-31
2023/04/09 12:14:06;;;;;;;22.77;12.40;;;15.60;99.90;;;;;;5066210;28;20024;-33
2023/04/09 12:16:35;;;;;;;23.40;14.10;;;15.70;99.90;;;;;;5066432;28;20094;-32
2023/04/09 12:19:08;;;;;;;24.42;12.85;;;16.00;99.90;;;;;;5065586;28;20111;-36
2023/04/09 12:21:54;;;;;;;22.73;12.95;;;16.40;99.90;;;;;;5069345;28;20078;-32
2023/04/09 12:24:22;;;;;;;22.05;12.68;;;16.70;99.90;;;;;;5058338;28;20485;-35
2023/04/09 12:26:48;;;;;;;;;;;16.70;99.90;;;;;;5052929;28;20106;-37
2023/04/09 12:29:15;;;;;;;21.83;11.63;;;16.60;99.90;;;;;;5069770;28;19966;-51